Terminal Aerodrome Forecast
Issued by NWS Cleveland, OH

Home | Current Version | Previous Version | Text Only | Print | Product List | Glossary On
Versions: 1 2 3 4 5 6 7 8 9 10 11 12 13 14 15 16 17
000
FTUS41 KCLE 212047 AAA
TAFMFD
TAF AMD
KMFD 212047Z 2121/2218 20005KT 3SM BR OVC009
     FM220000 19009KT 2SM BR OVC003
      TEMPO 2205/2209 3SM -SHRA BR OVC006
     FM220900 18010KT 3SM BR OVC009
     FM221400 18010KT 6SM BR OVC015=

USA.gov is the U.S. government's official web portal to all federal, state and local government web resources and services.